createdAt,value
2019-02-12T00:02:17.280Z,8.97
2019-02-12T00:04:44.843Z,7.47
2019-02-12T00:07:12.611Z,8.40
2019-02-12T00:09:40.393Z,7.10
2019-02-12T00:12:08.144Z,6.13
2019-02-12T00:14:35.801Z,5.67
2019-02-12T00:17:03.433Z,11.43
2019-02-12T00:19:31.080Z,9.17
2019-02-12T00:21:58.792Z,9.00
2019-02-12T00:24:28.224Z,8.67
2019-02-12T00:26:55.851Z,8.30
2019-02-12T00:29:23.536Z,6.27
2019-02-12T00:31:52.123Z,11.77
2019-02-12T00:34:19.768Z,8.97
2019-02-12T00:36:47.401Z,9.27
2019-02-12T00:39:15.106Z,8.20
2019-02-12T00:41:42.761Z,7.70
2019-02-12T00:44:10.438Z,7.83
2019-02-12T00:46:38.019Z,7.60
2019-02-12T00:49:05.652Z,7.50
2019-02-12T00:51:33.295Z,6.33
2019-02-12T00:54:00.875Z,7.40
2019-02-12T00:56:28.439Z,5.40
2019-02-12T00:58:56.209Z,8.50
2019-02-12T01:01:23.847Z,4.90
2019-02-12T01:03:51.478Z,4.27
2019-02-12T01:06:19.024Z,5.87
2019-02-12T01:08:46.702Z,4.53
2019-02-12T01:11:14.233Z,6.23
2019-02-12T01:13:41.775Z,6.70
2019-02-12T01:16:09.438Z,6.43
2019-02-12T01:18:37.005Z,5.27
2019-02-12T01:21:04.660Z,4.60
2019-02-12T01:23:32.252Z,7.00
2019-02-12T01:25:59.905Z,6.93
2019-02-12T01:28:27.455Z,6.17
2019-02-12T01:30:55.217Z,3.60
2019-02-12T01:33:22.873Z,5.03
2019-02-12T01:35:50.552Z,6.27
2019-02-12T01:38:18.267Z,4.67
2019-02-12T01:40:45.974Z,3.23
2019-02-12T01:43:13.528Z,6.97
2019-02-12T01:45:41.096Z,4.03
2019-02-12T01:48:08.773Z,5.40
2019-02-12T01:50:36.449Z,4.77
2019-02-12T01:53:04.080Z,5.63
2019-02-12T01:55:31.627Z,5.13
2019-02-12T01:57:59.330Z,7.83
2019-02-12T02:00:26.968Z,6.23
2019-02-12T02:02:54.735Z,4.60
2019-02-12T02:05:22.608Z,4.20
2019-02-12T02:07:50.271Z,5.23
2019-02-12T02:10:17.981Z,4.10
2019-02-12T02:12:45.900Z,6.63
2019-02-12T02:15:13.783Z,6.47
2019-02-12T02:17:41.432Z,4.93
2019-02-12T02:20:10.736Z,3.33
2019-02-12T02:22:38.393Z,7.97
2019-02-12T02:25:07.605Z,3.77
2019-02-12T02:27:35.250Z,4.50
2019-02-12T02:30:03.036Z,7.73
2019-02-12T02:32:30.672Z,5.70
2019-02-12T02:34:58.345Z,4.03
2019-02-12T02:37:25.969Z,6.63
2019-02-12T02:39:53.680Z,6.63
2019-02-12T02:42:21.242Z,4.07
2019-02-12T02:44:48.923Z,6.70
2019-02-12T02:47:16.573Z,5.00
2019-02-12T02:49:44.345Z,4.57
2019-02-12T02:52:11.997Z,5.73
2019-02-12T02:54:39.662Z,3.17
2019-02-12T02:57:07.253Z,3.10
2019-02-12T02:59:34.788Z,6.47
2019-02-12T03:02:02.554Z,5.87
2019-02-12T03:04:30.325Z,4.37
2019-02-12T03:06:57.976Z,5.17
2019-02-12T03:09:25.659Z,5.43
2019-02-12T03:11:53.315Z,3.13
2019-02-12T03:14:21.275Z,5.47
2019-02-12T03:16:48.949Z,6.37
2019-02-12T03:19:16.600Z,5.50
2019-02-12T03:21:44.271Z,3.73
2019-02-12T03:24:11.930Z,3.57
2019-02-12T03:26:39.701Z,4.47
2019-02-12T03:29:07.243Z,4.87
2019-02-12T03:31:34.925Z,4.27
2019-02-12T03:34:02.585Z,4.90
2019-02-12T03:36:30.354Z,7.57
2019-02-12T03:38:58.012Z,3.73
2019-02-12T03:41:25.791Z,4.97
2019-02-12T03:43:53.423Z,4.90
2019-02-12T03:46:21.003Z,6.67
2019-02-12T03:48:48.665Z,5.50
2019-02-12T03:51:16.437Z,6.13
2019-02-12T03:53:44.203Z,7.33
2019-02-12T03:56:11.876Z,6.57
2019-02-12T03:58:39.637Z,5.40
2019-02-12T04:01:07.399Z,9.50
2019-02-12T04:03:36.562Z,6.53
2019-02-12T04:06:05.280Z,10.68
2019-02-12T04:08:32.947Z,6.77
2019-02-12T04:11:00.715Z,7.97
2019-02-12T04:13:28.256Z,7.97
2019-02-12T04:15:55.921Z,4.33
2019-02-12T04:18:23.584Z,10.00
2019-02-12T04:20:51.266Z,11.57
2019-02-12T04:23:18.927Z,7.80
2019-02-12T04:25:46.795Z,6.83
2019-02-12T04:28:15.580Z,10.03
2019-02-12T04:30:43.231Z,11.53
2019-02-12T04:33:11.005Z,6.63
2019-02-12T04:35:38.679Z,10.53
2019-02-12T04:38:06.447Z,6.17
2019-02-12T04:40:34.088Z,7.03
2019-02-12T04:43:01.785Z,4.93
2019-02-12T04:45:29.320Z,9.90
2019-02-12T04:47:56.987Z,7.37
2019-02-12T04:50:24.661Z,6.03
2019-02-12T04:52:52.228Z,10.43
2019-02-12T04:55:19.990Z,10.97
2019-02-12T04:57:47.642Z,7.47
2019-02-12T05:00:16.138Z,7.77
2019-02-12T05:02:43.791Z,8.13
2019-02-12T05:05:11.565Z,9.83
2019-02-12T05:07:39.221Z,9.93
2019-02-12T05:10:11.377Z,10.67
2019-02-12T05:12:39.065Z,7.23
2019-02-12T05:15:07.723Z,5.67
2019-02-12T05:17:35.411Z,5.07
2019-02-12T05:20:03.181Z,8.57
2019-02-12T05:22:30.853Z,6.43
2019-02-12T05:24:58.607Z,8.13
2019-02-12T05:27:26.265Z,7.83
2019-02-12T05:29:53.933Z,8.47
2019-02-12T05:32:21.576Z,9.27
2019-02-12T05:34:49.374Z,11.77
2019-02-12T05:37:17.234Z,15.90
2019-02-12T05:39:44.909Z,35.20
2019-02-12T05:42:12.561Z,21.00
2019-02-12T05:44:40.331Z,5.43
2019-02-12T05:47:07.995Z,7.93
2019-02-12T05:49:35.660Z,18.87
2019-02-12T05:52:03.311Z,5.03
2019-02-12T05:54:31.081Z,8.10
2019-02-12T05:56:58.741Z,11.60
2019-02-12T05:59:26.511Z,13.47
2019-02-12T06:01:54.164Z,9.50
2019-02-12T06:04:21.934Z,11.73
2019-02-12T06:06:49.593Z,10.17
2019-02-12T06:09:17.377Z,8.73
2019-02-12T06:11:46.446Z,14.00
2019-02-12T06:14:14.241Z,9.80
2019-02-12T06:16:41.860Z,12.87
2019-02-12T06:19:11.529Z,48.50
2019-02-12T06:21:38.726Z,91.50
2019-02-12T06:24:06.268Z,50.93
2019-02-12T06:26:33.977Z,81.93
2019-02-12T06:29:01.660Z,12.70
2019-02-12T06:31:29.421Z,40.53
2019-02-12T06:33:57.073Z,95.87
2019-02-12T06:36:24.840Z,25.33
2019-02-12T06:38:52.415Z,64.20
2019-02-12T06:41:20.161Z,17.87
2019-02-12T06:43:47.916Z,6.77
2019-02-12T06:46:15.476Z,24.80
2019-02-12T06:48:43.035Z,23.03
2019-02-12T06:51:10.636Z,34.43
2019-02-12T06:53:38.685Z,36.13
2019-02-12T06:56:06.351Z,75.83
2019-02-12T06:58:34.042Z,32.60
2019-02-12T07:01:01.782Z,26.07
2019-02-12T07:03:31.085Z,34.30
2019-02-12T07:06:00.264Z,30.90
2019-02-12T07:08:47.601Z,17.63
2019-02-12T07:11:25.814Z,7.60
2019-02-12T07:13:55.134Z,9.70
2019-02-12T07:16:24.220Z,7.80
2019-02-12T07:18:56.491Z,14.03
2019-02-12T07:21:25.896Z,7.10
2019-02-12T07:23:55.072Z,9.93
2019-02-12T07:26:36.688Z,10.03
2019-02-12T07:29:11.818Z,7.57
2019-02-12T07:31:50.445Z,12.10
2019-02-12T07:34:22.609Z,8.07
2019-02-12T07:36:51.807Z,11.73
2019-02-12T07:39:30.228Z,7.63
2019-02-12T07:42:02.331Z,9.90
2019-02-12T07:44:34.671Z,13.73
2019-02-12T07:47:20.444Z,9.77
2019-02-12T07:49:49.763Z,8.77
2019-02-12T07:52:28.283Z,10.23
2019-02-12T07:54:57.682Z,9.03
2019-02-12T07:57:26.883Z,10.07
2019-02-12T08:00:08.456Z,10.47
2019-02-12T08:02:37.768Z,8.33
2019-02-12T08:05:06.974Z,5.57
2019-02-12T08:07:39.353Z,55.97
2019-02-12T08:10:20.646Z,10.07
2019-02-12T08:12:52.487Z,7.00
2019-02-12T08:15:24.436Z,10.77
2019-02-12T08:17:53.657Z,8.23
2019-02-12T08:20:23.057Z,5.53
2019-02-12T08:23:01.175Z,4.90
2019-02-12T08:25:30.321Z,9.87
2019-02-12T08:28:16.131Z,6.47
2019-02-12T08:30:48.116Z,8.67
2019-02-12T08:33:29.397Z,8.20
2019-02-12T08:35:58.807Z,4.37
2019-02-12T08:38:37.203Z,3.37
2019-02-12T08:41:23.122Z,7.80
2019-02-12T08:44:01.429Z,7.73
2019-02-12T08:46:33.786Z,4.60
2019-02-12T08:49:12.133Z,5.07
2019-02-12T08:51:50.334Z,4.37
2019-02-12T08:54:19.629Z,8.53
2019-02-12T08:56:48.826Z,12.77
2019-02-12T08:59:24.413Z,6.10
2019-02-12T09:01:53.507Z,6.57
2019-02-12T09:04:25.438Z,9.00
2019-02-12T09:06:54.616Z,9.53
2019-02-12T09:09:23.849Z,6.57
2019-02-12T09:11:53.048Z,13.57
2019-02-12T09:14:22.265Z,6.70
2019-02-12T09:17:00.108Z,16.17
2019-02-12T09:19:32.308Z,9.90
2019-02-12T09:22:01.505Z,7.90
2019-02-12T09:24:33.466Z,11.67
2019-02-12T09:27:08.713Z,8.10
2019-02-12T09:29:37.900Z,7.33
2019-02-12T09:32:25.744Z,10.47
2019-02-12T09:34:55.040Z,6.87
2019-02-12T09:37:24.244Z,6.63
2019-02-12T09:40:18.948Z,6.73
2019-02-12T09:42:45.483Z,11.80
2019-02-12T09:45:14.780Z,6.13
2019-02-12T09:47:43.980Z,9.03
2019-02-12T09:50:15.931Z,10.90
2019-02-12T09:52:47.916Z,8.30
2019-02-12T09:55:29.607Z,8.63
2019-02-12T09:58:04.958Z,8.07
2019-02-12T10:00:40.210Z,9.30
2019-02-12T10:03:26.108Z,7.57
2019-02-12T10:05:55.372Z,9.40
2019-02-12T10:08:30.159Z,8.30
2019-02-12T10:11:16.089Z,9.87
2019-02-12T10:13:51.328Z,9.07
2019-02-12T10:16:20.550Z,12.33
2019-02-12T10:19:04.905Z,16.97
2019-02-12T10:21:34.224Z,12.13
2019-02-12T10:24:19.025Z,7.80
2019-02-12T10:26:40.184Z,14.50
2019-02-12T10:29:27.614Z,9.00
2019-02-12T10:31:54.743Z,10.97
2019-02-12T10:34:22.522Z,10.53
2019-02-12T10:36:50.192Z,9.50
2019-02-12T10:39:17.849Z,12.47
2019-02-12T10:41:45.457Z,15.73
2019-02-12T10:44:13.086Z,11.57
2019-02-12T10:46:40.623Z,16.07
2019-02-12T10:49:08.713Z,8.80
2019-02-12T10:51:36.372Z,30.67
2019-02-12T10:54:03.958Z,8.40
2019-02-12T10:56:31.606Z,8.60
2019-02-12T10:58:59.369Z,10.77
2019-02-12T11:01:27.034Z,8.23
2019-02-12T11:03:56.415Z,13.37
2019-02-12T11:06:24.200Z,9.97
2019-02-12T11:08:51.971Z,8.37
2019-02-12T11:11:19.645Z,10.93
2019-02-12T11:13:47.267Z,7.30
2019-02-12T11:16:15.054Z,12.50
2019-02-12T11:18:42.820Z,8.53
2019-02-12T11:21:12.091Z,11.57
2019-02-12T11:23:39.893Z,8.60
2019-02-12T11:26:07.546Z,8.10
2019-02-12T11:28:35.317Z,8.73
2019-02-12T11:31:02.992Z,7.70
2019-02-12T11:33:30.661Z,12.00
2019-02-12T11:35:58.410Z,7.53
2019-02-12T11:38:26.182Z,10.07
2019-02-12T11:40:53.853Z,7.00
2019-02-12T11:43:21.510Z,9.63
2019-02-12T11:45:49.026Z,11.37
2019-02-12T11:48:17.930Z,10.03
2019-02-12T11:50:46.139Z,8.77
2019-02-12T11:53:13.800Z,17.53
2019-02-12T11:55:41.576Z,19.30
2019-02-12T11:58:09.209Z,14.87
2019-02-12T12:00:38.347Z,11.50
2019-02-12T12:03:05.981Z,11.83
2019-02-12T12:05:34.769Z,10.90
2019-02-12T12:08:02.529Z,14.13
2019-02-12T12:10:30.206Z,11.87
2019-02-12T12:12:57.868Z,12.43
2019-02-12T12:15:25.646Z,9.17
2019-02-12T12:17:53.288Z,12.47
2019-02-12T12:20:20.828Z,5.40
2019-02-12T12:22:48.521Z,11.17
2019-02-12T12:25:16.107Z,16.63
2019-02-12T12:27:43.745Z,12.77
2019-02-12T12:30:12.172Z,13.83
2019-02-12T12:32:39.772Z,9.97
2019-02-12T12:35:08.601Z,9.47
2019-02-12T12:37:36.346Z,13.67
2019-02-12T12:40:07.013Z,14.53
2019-02-12T12:42:34.540Z,12.17
2019-02-12T12:45:02.312Z,13.53
2019-02-12T12:47:29.975Z,13.40
2019-02-12T12:49:59.158Z,10.20
2019-02-12T12:52:27.050Z,13.77
2019-02-12T12:54:59.747Z,11.27
2019-02-12T12:57:23.997Z,9.63
2019-02-12T12:59:51.660Z,14.83
2019-02-12T13:02:19.287Z,10.40
2019-02-12T13:04:46.865Z,17.67
2019-02-12T13:07:14.454Z,10.57
2019-02-12T13:09:42.324Z,18.07
2019-02-12T13:12:10.090Z,12.47
2019-02-12T13:14:37.695Z,9.97
2019-02-12T13:17:05.306Z,11.27
2019-02-12T13:19:32.972Z,23.17
2019-02-12T13:22:00.634Z,8.47
2019-02-12T13:24:28.403Z,7.50
2019-02-12T13:26:56.009Z,8.73
2019-02-12T13:29:23.649Z,8.63
2019-02-12T13:31:51.257Z,7.40
2019-02-12T13:34:18.865Z,6.57
2019-02-12T13:36:46.454Z,7.20
2019-02-12T13:39:14.188Z,9.47
2019-02-12T13:41:41.768Z,8.30
2019-02-12T13:44:09.387Z,10.60
2019-02-12T13:46:37.183Z,14.57
2019-02-12T13:49:04.819Z,9.70
2019-02-12T13:51:32.393Z,11.77
2019-02-12T13:54:00.156Z,10.50
2019-02-12T13:56:27.708Z,11.27
2019-02-12T13:58:55.380Z,7.83
2019-02-12T14:01:23.352Z,6.07
2019-02-12T14:03:51.067Z,9.47
2019-02-12T14:06:19.321Z,9.20
2019-02-12T14:08:48.735Z,9.80
2019-02-12T14:11:16.375Z,9.90
2019-02-12T14:13:44.130Z,10.93
2019-02-12T14:16:11.807Z,13.60
2019-02-12T14:18:39.392Z,7.63
2019-02-12T14:21:07.103Z,8.67
2019-02-12T14:23:34.684Z,11.90
2019-02-12T14:26:02.257Z,7.27
2019-02-12T14:28:29.877Z,6.67
2019-02-12T14:30:57.451Z,6.77
2019-02-12T14:33:25.237Z,9.23
2019-02-12T14:35:52.901Z,6.60
2019-02-12T14:38:20.469Z,18.03
2019-02-12T14:40:48.172Z,7.20
2019-02-12T14:43:15.869Z,6.13
2019-02-12T14:45:43.434Z,5.63
2019-02-12T14:48:11.212Z,11.37
2019-02-12T14:50:38.818Z,4.30
2019-02-12T14:53:06.428Z,8.43
2019-02-12T14:55:34.248Z,12.63
2019-02-12T14:58:01.965Z,7.23
2019-02-12T15:00:29.751Z,7.27
2019-02-12T15:02:57.717Z,9.20
2019-02-12T15:05:25.375Z,9.73
2019-02-12T15:07:53.016Z,8.40
2019-02-12T15:10:20.696Z,8.13
2019-02-12T15:12:48.375Z,7.97
2019-02-12T15:15:16.017Z,7.50
2019-02-12T15:17:43.674Z,6.17
2019-02-12T15:20:11.870Z,5.93
2019-02-12T15:22:39.638Z,6.43
2019-02-12T15:25:08.826Z,7.13
2019-02-12T15:27:36.493Z,10.90
2019-02-12T15:30:05.904Z,12.30
2019-02-12T15:32:33.558Z,7.07
2019-02-12T15:35:01.207Z,8.67
2019-02-12T15:37:29.096Z,7.90
2019-02-12T15:39:56.755Z,8.53
2019-02-12T15:42:24.526Z,9.13
2019-02-12T15:44:52.168Z,9.37
2019-02-12T15:47:19.954Z,9.80
2019-02-12T15:49:47.720Z,5.40
2019-02-12T15:52:15.603Z,6.73
2019-02-12T15:54:43.559Z,7.73
2019-02-12T15:57:11.317Z,6.23
2019-02-12T15:59:38.987Z,6.93
2019-02-12T16:02:06.626Z,53.03
2019-02-12T16:04:34.364Z,20.17
2019-02-12T16:07:02.183Z,6.17
2019-02-12T16:09:31.246Z,9.23
2019-02-12T16:11:59.092Z,8.20
2019-02-12T16:14:26.821Z,10.03
2019-02-12T16:16:54.578Z,12.53
2019-02-12T16:19:22.334Z,6.87
2019-02-12T16:21:49.907Z,13.87
2019-02-12T16:24:17.565Z,11.50
2019-02-12T16:26:45.238Z,15.63
2019-02-12T16:29:12.999Z,15.17
2019-02-12T16:31:40.657Z,12.23
2019-02-12T16:34:08.426Z,13.03
2019-02-12T16:36:36.044Z,18.87
2019-02-12T16:39:04.912Z,10.77
2019-02-12T16:41:32.533Z,14.93
2019-02-12T16:44:00.207Z,11.73
2019-02-12T16:46:27.865Z,23.40
2019-02-12T16:48:55.481Z,17.43
2019-02-12T16:51:23.224Z,24.40
2019-02-12T16:53:50.964Z,50.03
2019-02-12T16:56:18.618Z,13.83
2019-02-12T16:58:46.390Z,18.10
2019-02-12T17:01:14.153Z,19.67
2019-02-12T17:03:41.753Z,11.00
2019-02-12T17:06:09.417Z,12.67
2019-02-12T17:08:37.145Z,14.87
2019-02-12T17:11:04.914Z,12.77
2019-02-12T17:13:34.422Z,11.80
2019-02-12T17:16:02.271Z,14.87
2019-02-12T17:18:29.932Z,13.20
2019-02-12T17:20:57.553Z,11.50
2019-02-12T17:23:25.144Z,12.13
2019-02-12T17:25:55.748Z,11.23
2019-02-12T17:28:23.340Z,13.83
2019-02-12T17:30:50.957Z,19.97
2019-02-12T17:33:18.541Z,18.13
2019-02-12T17:35:46.186Z,13.23
2019-02-12T17:38:14.144Z,20.53
2019-02-12T17:40:41.771Z,20.30
2019-02-12T17:43:09.459Z,28.20
2019-02-12T17:45:38.859Z,30.20
2019-02-12T17:48:06.502Z,23.67
2019-02-12T17:50:34.717Z,31.93
2019-02-12T17:53:02.320Z,35.97
2019-02-12T17:55:29.899Z,26.10
2019-02-12T17:57:57.825Z,27.40
2019-02-12T18:00:27.098Z,26.10
2019-02-12T18:02:54.674Z,32.03
2019-02-12T18:05:22.414Z,25.80
2019-02-12T18:07:50.063Z,22.80
2019-02-12T18:10:17.744Z,24.20
2019-02-12T18:12:45.404Z,24.40
2019-02-12T18:15:13.694Z,31.67
2019-02-12T18:17:41.359Z,31.73
2019-02-12T18:20:13.213Z,37.07
2019-02-12T18:22:40.817Z,29.83
2019-02-12T18:25:09.661Z,36.07
2019-02-12T18:27:37.247Z,35.80
2019-02-12T18:30:18.115Z,40.25
2019-02-12T18:32:45.866Z,34.57
2019-02-12T18:35:13.524Z,45.23
2019-02-12T18:37:41.296Z,34.87
2019-02-12T18:40:10.078Z,37.20
2019-02-12T18:42:37.744Z,39.57
2019-02-12T18:45:07.148Z,31.50
2019-02-12T18:47:35.795Z,35.43
2019-02-12T18:50:04.026Z,25.03
2019-02-12T18:52:31.673Z,31.53
2019-02-12T18:54:59.440Z,32.03
2019-02-12T18:57:27.322Z,29.37
2019-02-12T18:59:55.068Z,31.80
2019-02-12T19:02:22.850Z,31.90
2019-02-12T19:04:50.531Z,30.83
2019-02-12T19:07:18.225Z,25.03
2019-02-12T19:09:45.867Z,29.67
2019-02-12T19:12:13.580Z,27.47
2019-02-12T19:14:41.242Z,27.27
2019-02-12T19:17:08.885Z,25.10
2019-02-12T19:19:36.573Z,30.30
2019-02-12T19:22:04.260Z,31.27
2019-02-12T19:24:31.936Z,30.40
2019-02-12T19:26:59.654Z,30.80
2019-02-12T19:29:27.323Z,33.90
2019-02-12T19:31:59.376Z,44.20
2019-02-12T19:34:24.414Z,38.07
2019-02-12T19:36:52.082Z,38.23
2019-02-12T19:39:19.744Z,35.60
2019-02-12T19:41:47.506Z,30.70
2019-02-12T19:44:15.139Z,28.97
2019-02-12T19:46:42.931Z,31.90
2019-02-12T19:49:10.713Z,25.60
2019-02-12T19:51:38.469Z,26.97
2019-02-12T19:54:06.335Z,22.27
2019-02-12T19:56:33.980Z,28.53
2019-02-12T19:59:01.869Z,27.97
2019-02-12T20:01:29.641Z,89.80
2019-02-12T20:03:57.397Z,30.67
2019-02-12T20:06:25.173Z,31.00
2019-02-12T20:08:53.035Z,46.33
2019-02-12T20:11:20.770Z,36.50
2019-02-12T20:13:48.567Z,27.00
2019-02-12T20:16:16.363Z,33.00
2019-02-12T20:18:44.106Z,37.27
2019-02-12T20:21:11.739Z,43.50
2019-02-12T20:23:39.534Z,39.13
2019-02-12T20:26:07.275Z,36.57
2019-02-12T20:28:35.060Z,27.47
2019-02-12T20:31:02.750Z,24.50
2019-02-12T20:33:30.400Z,18.30
2019-02-12T20:35:58.163Z,19.53
2019-02-12T20:38:25.848Z,24.03
2019-02-12T20:40:53.582Z,17.83
2019-02-12T20:43:21.336Z,20.43
2019-02-12T20:45:49.117Z,21.20
2019-02-12T20:48:16.755Z,23.03
2019-02-12T20:50:44.395Z,22.40
2019-02-12T20:53:12.303Z,27.03
2019-02-12T20:55:40.172Z,24.90
2019-02-12T20:58:08.045Z,29.10
2019-02-12T21:00:35.791Z,22.50
2019-02-12T21:03:03.886Z,23.50
2019-02-12T21:05:31.582Z,20.33
2019-02-12T21:07:59.309Z,27.63
2019-02-12T21:10:27.069Z,21.67
2019-02-12T21:12:54.849Z,20.33
2019-02-12T21:15:26.195Z,19.07
2019-02-12T21:18:01.487Z,26.13
2019-02-12T21:20:26.369Z,24.23
2019-02-12T21:22:54.516Z,27.70
2019-02-12T21:25:22.373Z,24.10
2019-02-12T21:27:50.133Z,22.77
2019-02-12T21:30:19.341Z,20.30
2019-02-12T21:32:47.088Z,21.60
2019-02-12T21:35:14.793Z,19.00
2019-02-12T21:37:42.531Z,24.13
2019-02-12T21:40:14.494Z,20.07
2019-02-12T21:42:42.458Z,40.83
2019-02-12T21:45:12.673Z,25.80
2019-02-12T21:47:40.543Z,22.20
2019-02-12T21:50:09.140Z,25.60
2019-02-12T21:52:37.015Z,28.10
2019-02-12T21:55:06.346Z,23.47
2019-02-12T21:57:34.047Z,29.23
2019-02-12T22:00:01.736Z,23.97
2019-02-12T22:02:29.927Z,21.73
2019-02-12T22:04:57.638Z,50.80
2019-02-12T22:07:25.972Z,39.03
2019-02-12T22:09:54.735Z,38.17
2019-02-12T22:12:22.530Z,26.10
2019-02-12T22:14:50.495Z,58.83
2019-02-12T22:17:18.360Z,87.83
2019-02-12T22:19:46.121Z,60.33
2019-02-12T22:22:13.993Z,51.87
2019-02-12T22:24:43.230Z,49.07
2019-02-12T22:27:10.957Z,34.10
2019-02-12T22:29:38.832Z,39.83
2019-02-12T22:32:06.900Z,29.80
2019-02-12T22:34:34.531Z,20.43
2019-02-12T22:37:02.324Z,17.57
2019-02-12T22:39:30.100Z,14.83
2019-02-12T22:41:57.770Z,15.50
2019-02-12T22:44:25.734Z,15.83
2019-02-12T22:46:53.611Z,24.57
2019-02-12T22:49:21.377Z,22.73
2019-02-12T22:51:49.544Z,21.73
2019-02-12T22:54:17.724Z,18.80
2019-02-12T22:56:45.485Z,16.93
2019-02-12T22:59:13.187Z,20.17
2019-02-12T23:01:41.160Z,19.57
2019-02-12T23:04:08.882Z,24.67
2019-02-12T23:06:36.749Z,30.00
2019-02-12T23:09:06.773Z,28.17
2019-02-12T23:11:34.469Z,22.17
2019-02-12T23:14:02.202Z,15.13
2019-02-12T23:16:29.962Z,18.63
2019-02-12T23:18:57.835Z,16.07
2019-02-12T23:21:25.606Z,11.83
2019-02-12T23:23:53.374Z,21.30
2019-02-12T23:26:21.068Z,43.13
2019-02-12T23:28:48.792Z,42.47
2019-02-12T23:31:16.543Z,89.17
2019-02-12T23:33:44.351Z,24.27
2019-02-12T23:36:12.088Z,38.10
2019-02-12T23:38:39.859Z,36.30
2019-02-12T23:41:07.548Z,80.87
2019-02-12T23:43:36.825Z,50.17
2019-02-12T23:46:05.623Z,35.28
2019-02-12T23:48:33.263Z,34.10
2019-02-12T23:51:01.055Z,32.43
2019-02-12T23:53:28.914Z,36.37
2019-02-12T23:55:56.556Z,79.10
2019-02-12T23:58:24.203Z,47.07
